Home > Products > Valid Products > TAF

000
FTUS43 KMKX 010732 AAA
TAFMKE
TAF AMD
KMKE 010732Z 0108/0212 21008KT P6SM BKN250
     FM011300 18008KT P6SM VCTS SCT040 BKN080CB
     FM011400 19012KT 6SM -TSRA SCT025 OVC050CB
     FM011700 20014G22KT P6SM SCT030 BKN060
     FM012100 23013G23KT P6SM VCTS SCT030CB BKN080
     FM020200 26005KT P6SM SCT030=



000
FTUS43 KMKX 010732 AAA
TAFMKE
TAF AMD
KMKE 010732Z 0108/0212 21008KT P6SM BKN250
     FM011300 18008KT P6SM VCTS SCT040 BKN080CB
     FM011400 19012KT 6SM -TSRA SCT025 OVC050CB
     FM011700 20014G22KT P6SM SCT030 BKN060
     FM012100 23013G23KT P6SM VCTS SCT030CB BKN080
     FM020200 26005KT P6SM SCT030=



000
FTUS43 KMKX 010731 AAC
TAFMSN
TAF AMD
KMSN 010731Z 0108/0206 23007KT P6SM SCT015 BKN025
     FM010900 17008KT P6SM VCTS SCT025 OVC070CB
     FM011100 20010KT 6SM -TSRA SCT015 BKN035CB
     FM011500 22014G24KT P6SM SCT025 BKN050
     FM012000 23013G23KT P6SM VCTS SCT025CB BKN040=



000
FTUS43 KMKX 010731 AAC
TAFMSN
TAF AMD
KMSN 010731Z 0108/0206 23007KT P6SM SCT015 BKN025
     FM010900 17008KT P6SM VCTS SCT025 OVC070CB
     FM011100 20010KT 6SM -TSRA SCT015 BKN035CB
     FM011500 22014G24KT P6SM SCT025 BKN050
     FM012000 23013G23KT P6SM VCTS SCT025CB BKN040=



000
FTUS43 KMKX 010700 AAB
TAFMSN
TAF AMD
KMSN 010700Z 0107/0206 22012G22KT P6SM SCT060 BKN120
     FM010900 17008KT P6SM VCTS SCT025 OVC070CB
     FM011100 20010KT 6SM -TSRA SCT015 BKN035CB
     FM011500 22014G24KT P6SM SCT025 BKN050
     FM012000 23013G23KT P6SM VCTS SCT025CB BKN040=



000
FTUS43 KMKX 010700 AAB
TAFMSN
TAF AMD
KMSN 010700Z 0107/0206 22012G22KT P6SM SCT060 BKN120
     FM010900 17008KT P6SM VCTS SCT025 OVC070CB
     FM011100 20010KT 6SM -TSRA SCT015 BKN035CB
     FM011500 22014G24KT P6SM SCT025 BKN050
     FM012000 23013G23KT P6SM VCTS SCT025CB BKN040=



000
FTUS43 KMKX 010629 AAA
TAFMSN
TAF AMD
KMSN 010629Z 0106/0206 18010KT P6SM SCT080 BKN200
     FM010700 21012G22KT P6SM SCT060 BKN120
     FM010900 17008KT P6SM VCTS SCT025 OVC070CB
     FM011100 20010KT 6SM -TSRA SCT015 BKN035CB
     FM011500 22014G24KT P6SM SCT025 BKN050
     FM012000 23013G23KT P6SM VCTS SCT025CB BKN040=



000
FTUS43 KMKX 010629 AAA
TAFMSN
TAF AMD
KMSN 010629Z 0106/0206 18010KT P6SM SCT080 BKN200
     FM010700 21012G22KT P6SM SCT060 BKN120
     FM010900 17008KT P6SM VCTS SCT025 OVC070CB
     FM011100 20010KT 6SM -TSRA SCT015 BKN035CB
     FM011500 22014G24KT P6SM SCT025 BKN050
     FM012000 23013G23KT P6SM VCTS SCT025CB BKN040=



000
FTUS43 KMKX 010520
TAFMKE
TAF
KMKE 010520Z 0106/0212 17007KT 5SM BR SCT080 BKN150
     FM011300 18008KT P6SM VCTS SCT040 BKN080CB
     FM011400 19012KT 6SM -TSRA SCT025 OVC050CB
      TEMPO 0114/0117 4SM TSRA BKN025CB
     FM011700 20014G22KT P6SM SCT030 BKN060
     FM012100 23013G23KT P6SM VCTS SCT030CB BKN080
     FM020200 26005KT P6SM SCT030=



000
FTUS43 KMKX 010520
TAFMSN
TAF
KMSN 010520Z 0106/0206 17006KT P6SM SCT080 BKN200
     FM010900 17008KT P6SM VCTS SCT025 OVC070CB
     FM011100 20010KT 6SM -TSRA SCT015 BKN035CB
      TEMPO 0111/0114 3SM TSRA OVC015CB
     FM011500 22014G24KT P6SM SCT025 BKN050
     FM012000 23013G23KT P6SM VCTS SCT025CB BKN040
     FM020200 24005KT P6SM SCT040=



000
FTUS43 KMKX 010520
TAFMKE
TAF
KMKE 010520Z 0106/0212 17007KT 5SM BR SCT080 BKN150
     FM011300 18008KT P6SM VCTS SCT040 BKN080CB
     FM011400 19012KT 6SM -TSRA SCT025 OVC050CB
      TEMPO 0114/0117 4SM TSRA BKN025CB
     FM011700 20014G22KT P6SM SCT030 BKN060
     FM012100 23013G23KT P6SM VCTS SCT030CB BKN080
     FM020200 26005KT P6SM SCT030=



000
FTUS43 KMKX 010520
TAFMSN
TAF
KMSN 010520Z 0106/0206 17006KT P6SM SCT080 BKN200
     FM010900 17008KT P6SM VCTS SCT025 OVC070CB
     FM011100 20010KT 6SM -TSRA SCT015 BKN035CB
      TEMPO 0111/0114 3SM TSRA OVC015CB
     FM011500 22014G24KT P6SM SCT025 BKN050
     FM012000 23013G23KT P6SM VCTS SCT025CB BKN040
     FM020200 24005KT P6SM SCT040=



000
FTUS43 KMKX 010401 AAB
TAFMKE
TAF AMD
KMKE 010401Z 0104/0206 18007KT P6SM BKN250
     FM010900 17008KT P6SM SCT080 BKN150
     FM011300 18008KT P6SM VCTS SCT040 BKN080CB
     FM011400 19012KT 6SM -TSRA SCT025 OVC050CB
      TEMPO 0114/0117 4SM TSRA BKN025CB
     FM011700 20014G22KT P6SM SCT030 BKN060
     FM012100 23013G23KT P6SM VCTS SCT030CB BKN080
     FM020400 26005KT P6SM BKN030=



000
FTUS43 KMKX 010401 AAB
TAFMKE
TAF AMD
KMKE 010401Z 0104/0206 18007KT P6SM BKN250
     FM010900 17008KT P6SM SCT080 BKN150
     FM011300 18008KT P6SM VCTS SCT040 BKN080CB
     FM011400 19012KT 6SM -TSRA SCT025 OVC050CB
      TEMPO 0114/0117 4SM TSRA BKN025CB
     FM011700 20014G22KT P6SM SCT030 BKN060
     FM012100 23013G23KT P6SM VCTS SCT030CB BKN080
     FM020400 26005KT P6SM BKN030=



000
FTUS43 KMKX 010305 AAA
TAFMKE
TAF AMD
KMKE 010305Z 0103/0206 17006KT P6SM SCT250
     FM010500 17005KT 5SM BR SCT080 BKN150
     FM011300 18008KT P6SM VCTS SCT040 BKN080CB
     FM011400 19012KT 6SM -TSRA SCT025 OVC050CB
      TEMPO 0114/0117 4SM TSRA BKN025CB
     FM011700 20014G22KT P6SM SCT030 BKN060
     FM012100 23013G23KT P6SM VCTS SCT030CB BKN080
     FM020400 26005KT P6SM BKN030=



000
FTUS43 KMKX 010305 AAA
TAFMKE
TAF AMD
KMKE 010305Z 0103/0206 17006KT P6SM SCT250
     FM010500 17005KT 5SM BR SCT080 BKN150
     FM011300 18008KT P6SM VCTS SCT040 BKN080CB
     FM011400 19012KT 6SM -TSRA SCT025 OVC050CB
      TEMPO 0114/0117 4SM TSRA BKN025CB
     FM011700 20014G22KT P6SM SCT030 BKN060
     FM012100 23013G23KT P6SM VCTS SCT030CB BKN080
     FM020400 26005KT P6SM BKN030=



000
FTUS43 KMKX 312331
TAFMSN
TAF
KMSN 312331Z 0100/0124 17008KT P6SM FEW060 SCT250
     FM010500 17006KT P6SM SCT080 BKN120
     FM011000 17008KT P6SM VCTS SCT025 OVC070CB
     FM011200 20010KT 6SM -TSRA SCT015 BKN035CB
      TEMPO 0112/0115 3SM TSRA OVC015CB
     FM011500 22014G24KT P6SM SCT025 BKN050
     FM012000 23013G23KT P6SM VCTS SCT025CB BKN040=



000
FTUS43 KMKX 312331
TAFMKE
TAF
KMKE 312331Z 0100/0206 15006KT P6SM SCT250
     FM010500 17005KT 5SM BR SCT080 BKN150
     FM011300 18008KT P6SM VCTS SCT040 BKN080CB
     FM011400 19012KT 6SM -TSRA SCT025 OVC050CB
      TEMPO 0114/0117 4SM TSRA BKN025CB
     FM011700 20014G22KT P6SM SCT030 BKN060
     FM012100 23013G23KT P6SM VCTS SCT030CB BKN080
     FM020400 26005KT P6SM BKN030=



000
FTUS43 KMKX 312331
TAFMSN
TAF
KMSN 312331Z 0100/0124 17008KT P6SM FEW060 SCT250
     FM010500 17006KT P6SM SCT080 BKN120
     FM011000 17008KT P6SM VCTS SCT025 OVC070CB
     FM011200 20010KT 6SM -TSRA SCT015 BKN035CB
      TEMPO 0112/0115 3SM TSRA OVC015CB
     FM011500 22014G24KT P6SM SCT025 BKN050
     FM012000 23013G23KT P6SM VCTS SCT025CB BKN040=



000
FTUS43 KMKX 312331
TAFMKE
TAF
KMKE 312331Z 0100/0206 15006KT P6SM SCT250
     FM010500 17005KT 5SM BR SCT080 BKN150
     FM011300 18008KT P6SM VCTS SCT040 BKN080CB
     FM011400 19012KT 6SM -TSRA SCT025 OVC050CB
      TEMPO 0114/0117 4SM TSRA BKN025CB
     FM011700 20014G22KT P6SM SCT030 BKN060
     FM012100 23013G23KT P6SM VCTS SCT030CB BKN080
     FM020400 26005KT P6SM BKN030=



000
FTUS43 KMKX 312202 AAB
TAFMSN
TAF AMD
KMSN 312202Z 3122/0118 18010KT P6SM FEW060 SCT250
     FM010100 17006KT P6SM BKN250
     FM011200 17009KT P6SM VCTS SCT025 OVC070CB
      TEMPO 0112/0116 3SM TSRA OVC030CB
     FM011600 22008KT P6SM VCSH OVC025=



000
FTUS43 KMKX 312202 AAB
TAFMSN
TAF AMD
KMSN 312202Z 3122/0118 18010KT P6SM FEW060 SCT250
     FM010100 17006KT P6SM BKN250
     FM011200 17009KT P6SM VCTS SCT025 OVC070CB
      TEMPO 0112/0116 3SM TSRA OVC030CB
     FM011600 22008KT P6SM VCSH OVC025=



000
FTUS43 KMKX 311958 AAA
TAFMKE
TAF AMD
KMKE 311958Z 3120/0124 10010KT P6SM FEW007 BKN035
     FM312100 14007KT P6SM SCT035
     FM010200 17007KT 6SM HZ FEW035 SCT250
     FM011300 21013KT P6SM VCTS SCT025 OVC070CB
      TEMPO 0113/0117 4SM TSRA BKN025CB
     FM011700 20014G22KT P6SM SCT030 BKN060=



000
FTUS43 KMKX 311958 AAA
TAFMKE
TAF AMD
KMKE 311958Z 3120/0124 10010KT P6SM FEW007 BKN035
     FM312100 14007KT P6SM SCT035
     FM010200 17007KT 6SM HZ FEW035 SCT250
     FM011300 21013KT P6SM VCTS SCT025 OVC070CB
      TEMPO 0113/0117 4SM TSRA BKN025CB
     FM011700 20014G22KT P6SM SCT030 BKN060=



000
FTUS43 KMKX 311834 AAA
TAFMSN
TAF AMD
KMSN 311834Z 3119/0118 21007KT P6SM FEW029 BKN035
     FM312100 20007KT P6SM SCT040
     FM010100 17006KT P6SM SCT250
     FM011200 17009KT P6SM VCTS SCT025 OVC070CB
      TEMPO 0112/0116 3SM TSRA OVC030CB
     FM011600 22008KT P6SM VCSH OVC025=



000
FTUS43 KMKX 311729
TAFMSN
TAF
KMSN 311729Z 3118/0118 18008KT P6SM BKN025
     FM311900 18007KT P6SM SCT028 BKN035
     FM010100 17006KT P6SM SCT250
     FM011200 17009KT P6SM VCTS SCT025 OVC070CB
      TEMPO 0112/0116 3SM TSRA OVC030CB
     FM011600 22008KT P6SM VCSH OVC025=



000
FTUS43 KMKX 311729
TAFMKE
TAF
KMKE 311729Z 3118/0124 11007KT P6SM SCT028 BKN035
     FM312100 14007KT P6SM SCT035
     FM010200 17007KT 6SM HZ FEW035 SCT250
     FM011300 21013KT P6SM VCTS SCT025 OVC070CB
      TEMPO 0113/0117 4SM TSRA BKN025CB
     FM011700 20014G22KT P6SM SCT030 BKN060=



000
FTUS43 KMKX 311729
TAFMSN
TAF
KMSN 311729Z 3118/0118 18008KT P6SM BKN025
     FM311900 18007KT P6SM SCT028 BKN035
     FM010100 17006KT P6SM SCT250
     FM011200 17009KT P6SM VCTS SCT025 OVC070CB
      TEMPO 0112/0116 3SM TSRA OVC030CB
     FM011600 22008KT P6SM VCSH OVC025=



000
FTUS43 KMKX 311729
TAFMKE
TAF
KMKE 311729Z 3118/0124 11007KT P6SM SCT028 BKN035
     FM312100 14007KT P6SM SCT035
     FM010200 17007KT 6SM HZ FEW035 SCT250
     FM011300 21013KT P6SM VCTS SCT025 OVC070CB
      TEMPO 0113/0117 4SM TSRA BKN025CB
     FM011700 20014G22KT P6SM SCT030 BKN060=



000
FTUS43 KMKX 311634 AAF
TAFMKE
TAF AMD
KMKE 311634Z 3117/0118 07008KT 6SM HZ FEW005 BKN030
     FM311800 14008KT P6SM SCT035
     FM010100 17006KT P6SM FEW120 SCT250
     FM011500 20012G18KT P6SM VCTS BKN020CB=



000
FTUS43 KMKX 311634 AAF
TAFMKE
TAF AMD
KMKE 311634Z 3117/0118 07008KT 6SM HZ FEW005 BKN030
     FM311800 14008KT P6SM SCT035
     FM010100 17006KT P6SM FEW120 SCT250
     FM011500 20012G18KT P6SM VCTS BKN020CB=



000
FTUS43 KMKX 311602 AAE
TAFMKE
TAF AMD
KMKE 311602Z 3116/0118 06008KT P6SM BKN026 BKN060
     FM311800 14008KT P6SM SCT035
     FM010100 17006KT P6SM FEW120 SCT250
     FM011500 20012G18KT P6SM VCTS BKN020CB=



000
FTUS43 KMKX 311602 AAC
TAFMSN
TAF AMD
KMSN 311602Z 3116/0112 VRB06KT P6SM BKN022
     FM312000 19007KT P6SM SCT035
     FM010900 18009KT P6SM VCTS BKN060CB=



000
FTUS43 KMKX 311602 AAC
TAFMSN
TAF AMD
KMSN 311602Z 3116/0112 VRB06KT P6SM BKN022
     FM312000 19007KT P6SM SCT035
     FM010900 18009KT P6SM VCTS BKN060CB=



000
FTUS43 KMKX 311602 AAE
TAFMKE
TAF AMD
KMKE 311602Z 3116/0118 06008KT P6SM BKN026 BKN060
     FM311800 14008KT P6SM SCT035
     FM010100 17006KT P6SM FEW120 SCT250
     FM011500 20012G18KT P6SM VCTS BKN020CB=



000
FTUS43 KMKX 311458 AAD
TAFMKE
TAF AMD
KMKE 311458Z 3115/0118 24004KT P6SM FEW030
     FM311800 14008KT P6SM SCT035
     FM010100 17006KT P6SM FEW120 SCT250
     FM011500 20012G18KT P6SM VCTS BKN020CB=



000
FTUS43 KMKX 311458 AAD
TAFMKE
TAF AMD
KMKE 311458Z 3115/0118 24004KT P6SM FEW030
     FM311800 14008KT P6SM SCT035
     FM010100 17006KT P6SM FEW120 SCT250
     FM011500 20012G18KT P6SM VCTS BKN020CB=



000
FTUS43 KMKX 311405 AAB
TAFMSN
TAF AMD
KMSN 311405Z 3114/0112 00000KT P6SM FEW010 SCT022
     FM311600 19005KT P6SM SCT020
     FM312000 19007KT P6SM SCT035
     FM010900 18009KT P6SM VCTS BKN060CB=



000
FTUS43 KMKX 311405 AAB
TAFMSN
TAF AMD
KMSN 311405Z 3114/0112 00000KT P6SM FEW010 SCT022
     FM311600 19005KT P6SM SCT020
     FM312000 19007KT P6SM SCT035
     FM010900 18009KT P6SM VCTS BKN060CB=



000
FTUS43 KMKX 311404 AAC
TAFMKE
TAF AMD
KMKE 311404Z 3114/0118 00000KT 3SM BR SCT002
     FM311500 16005KT P6SM SCT015
     FM312000 14008KT P6SM SCT035
     FM011500 20012G18KT P6SM VCTS BKN020CB=



000
FTUS43 KMKX 311404 AAC
TAFMKE
TAF AMD
KMKE 311404Z 3114/0118 00000KT 3SM BR SCT002
     FM311500 16005KT P6SM SCT015
     FM312000 14008KT P6SM SCT035
     FM011500 20012G18KT P6SM VCTS BKN020CB=



000
FTUS43 KMKX 311255 AAB
TAFMKE
TAF AMD
KMKE 311255Z 3113/0118 00000KT 1/4SM FG BKN002
      TEMPO 3113/3114 1/2SM FG BKN003
     FM311400 VRB03KT 3SM BR BKN005
     FM311600 16005KT P6SM SCT005
     FM312000 14008KT P6SM SCT035
     FM011500 20012G18KT P6SM VCTS BKN020CB=



000
FTUS43 KMKX 311255 AAB
TAFMKE
TAF AMD
KMKE 311255Z 3113/0118 00000KT 1/4SM FG BKN002
      TEMPO 3113/3114 1/2SM FG BKN003
     FM311400 VRB03KT 3SM BR BKN005
     FM311600 16005KT P6SM SCT005
     FM312000 14008KT P6SM SCT035
     FM011500 20012G18KT P6SM VCTS BKN020CB=



000
FTUS43 KMKX 311159 AAA
TAFMSN
TAF AMD
KMSN 311159Z 3112/0112 00000KT 1/4SM FG BKN002
      TEMPO 3112/3114 1SM BR BKN005
     FM311400 VRB03KT 3SM BR BKN010
     FM311600 19005KT P6SM SCT010
     FM312000 19007KT P6SM SCT035
     FM010900 18009KT P6SM VCTS BKN060CB=



000
FTUS43 KMKX 311159 AAA
TAFMSN
TAF AMD
KMSN 311159Z 3112/0112 00000KT 1/4SM FG BKN002
      TEMPO 3112/3114 1SM BR BKN005
     FM311400 VRB03KT 3SM BR BKN010
     FM311600 19005KT P6SM SCT010
     FM312000 19007KT P6SM SCT035
     FM010900 18009KT P6SM VCTS BKN060CB=



000
FTUS43 KMKX 311144 AAA
TAFMKE
TAF AMD
KMKE 311144Z 3112/0118 00000KT 1/4SM FG BKN001
      TEMPO 3112/3114 1/2SM FG BKN003
     FM311400 VRB03KT P6SM BKN005
     FM311600 16005KT P6SM SCT005
     FM312000 14008KT P6SM SCT035
     FM011500 20012G18KT P6SM VCTS BKN020CB=



000
FTUS43 KMKX 311144 AAA
TAFMKE
TAF AMD
KMKE 311144Z 3112/0118 00000KT 1/4SM FG BKN001
      TEMPO 3112/3114 1/2SM FG BKN003
     FM311400 VRB03KT P6SM BKN005
     FM311600 16005KT P6SM SCT005
     FM312000 14008KT P6SM SCT035
     FM011500 20012G18KT P6SM VCTS BKN020CB=



000
FTUS43 KMKX 311134
TAFMSN
TAF
KMSN 311134Z 3112/0112 00000KT 1/2SM FG BKN003
      TEMPO 3112/3114 1SM BR BKN005
     FM311400 VRB03KT 3SM BR BKN010
     FM311600 19005KT P6SM SCT010
     FM312000 19007KT P6SM SCT035
     FM010900 18009KT P6SM VCTS BKN060CB=



000
FTUS43 KMKX 311134
TAFMKE
TAF
KMKE 311134Z 3112/0118 00000KT 3/4SM BR BKN002
      TEMPO 3112/3114 1/2SM FG BKN003
     FM311400 VRB03KT P6SM BKN005
     FM311600 16005KT P6SM SCT005
     FM312000 14008KT P6SM SCT035
     FM011500 20012G18KT P6SM VCTS BKN020CB=



000
FTUS43 KMKX 311134
TAFMSN
TAF
KMSN 311134Z 3112/0112 00000KT 1/2SM FG BKN003
      TEMPO 3112/3114 1SM BR BKN005
     FM311400 VRB03KT 3SM BR BKN010
     FM311600 19005KT P6SM SCT010
     FM312000 19007KT P6SM SCT035
     FM010900 18009KT P6SM VCTS BKN060CB=



000
FTUS43 KMKX 311134
TAFMKE
TAF
KMKE 311134Z 3112/0118 00000KT 3/4SM BR BKN002
      TEMPO 3112/3114 1/2SM FG BKN003
     FM311400 VRB03KT P6SM BKN005
     FM311600 16005KT P6SM SCT005
     FM312000 14008KT P6SM SCT035
     FM011500 20012G18KT P6SM VCTS BKN020CB=



000
FTUS43 KMKX 311054 AAC
TAFMKE
TAF AMD
KMKE 311054Z 3111/0112 00000KT P6SM BKN004
      TEMPO 3111/3113 4SM BR SCT004
     FM311300 00000KT 4SM BR BKN004
     FM311500 12005KT P6SM SCT015
     FM311800 14005KT P6SM SCT025
     FM011000 17008KT P6SM BKN080=



000
FTUS43 KMKX 311054 AAC
TAFMKE
TAF AMD
KMKE 311054Z 3111/0112 00000KT P6SM BKN004
      TEMPO 3111/3113 4SM BR SCT004
     FM311300 00000KT 4SM BR BKN004
     FM311500 12005KT P6SM SCT015
     FM311800 14005KT P6SM SCT025
     FM011000 17008KT P6SM BKN080=



000
FTUS43 KMKX 311053 AAD
TAFMSN
TAF AMD
KMSN 311053Z 3111/0106 00000KT 1/2SM FG VV002
      TEMPO 3111/3113 1/4SM FG VV002
     FM311300 15004KT 3SM BR SCT002
     FM311500 18005KT P6SM SCT015
     FM312100 21008KT P6SM SCT030 SCT100=



000
FTUS43 KMKX 311053 AAD
TAFMSN
TAF AMD
KMSN 311053Z 3111/0106 00000KT 1/2SM FG VV002
      TEMPO 3111/3113 1/4SM FG VV002
     FM311300 15004KT 3SM BR SCT002
     FM311500 18005KT P6SM SCT015
     FM312100 21008KT P6SM SCT030 SCT100=



000
FTUS43 KMKX 310919 AAB
TAFMKE
TAF AMD
KMKE 310919Z 3109/0112 00000KT P6SM FEW005 SCT250
      TEMPO 3110/3113 4SM BR SCT005
     FM311300 00000KT 4SM BR BKN005
     FM311500 12005KT P6SM SCT015
     FM311800 14005KT P6SM SCT025
     FM011000 17008KT P6SM BKN080=



000
FTUS43 KMKX 310919 AAB
TAFMKE
TAF AMD
KMKE 310919Z 3109/0112 00000KT P6SM FEW005 SCT250
      TEMPO 3110/3113 4SM BR SCT005
     FM311300 00000KT 4SM BR BKN005
     FM311500 12005KT P6SM SCT015
     FM311800 14005KT P6SM SCT025
     FM011000 17008KT P6SM BKN080=



000
FTUS43 KMKX 310918 AAC
TAFMSN
TAF AMD
KMSN 310918Z 3109/0106 00000KT 1SM BR SCT001
      TEMPO 3109/3113 1/4SM FG VV001
     FM311300 15004KT 3SM BR SCT001
     FM311500 18005KT P6SM SCT015
     FM312100 21008KT P6SM SCT030 SCT100=



000
FTUS43 KMKX 310918 AAC
TAFMSN
TAF AMD
KMSN 310918Z 3109/0106 00000KT 1SM BR SCT001
      TEMPO 3109/3113 1/4SM FG VV001
     FM311300 15004KT 3SM BR SCT001
     FM311500 18005KT P6SM SCT015
     FM312100 21008KT P6SM SCT030 SCT100=



000
FTUS43 KMKX 310823 AAA
TAFMKE
TAF AMD
KMKE 310823Z 3108/0112 00000KT P6SM FEW005
      TEMPO 3108/3112 4SM BR SCT005
     FM311200 00000KT 4SM BR BKN005
     FM311500 12005KT P6SM SCT015
     FM311800 14005KT P6SM SCT025
     FM011000 17008KT P6SM BKN080=



000
FTUS43 KMKX 310823 AAA
TAFMKE
TAF AMD
KMKE 310823Z 3108/0112 00000KT P6SM FEW005
      TEMPO 3108/3112 4SM BR SCT005
     FM311200 00000KT 4SM BR BKN005
     FM311500 12005KT P6SM SCT015
     FM311800 14005KT P6SM SCT025
     FM011000 17008KT P6SM BKN080=



000
FTUS43 KMKX 310818 AAB
TAFMSN
TAF AMD
KMSN 310818Z 3108/0106 00000KT 4SM BR SCT002
      TEMPO 3108/3109 1/2SM FG
     FM310900 00000KT 1SM BR SCT002
     FM311300 15004KT 3SM BR SCT002
     FM311500 18005KT P6SM SCT015
     FM312100 21008KT P6SM SCT030 SCT100=



000
FTUS43 KMKX 310818 AAB
TAFMSN
TAF AMD
KMSN 310818Z 3108/0106 00000KT 4SM BR SCT002
      TEMPO 3108/3109 1/2SM FG
     FM310900 00000KT 1SM BR SCT002
     FM311300 15004KT 3SM BR SCT002
     FM311500 18005KT P6SM SCT015
     FM312100 21008KT P6SM SCT030 SCT100=



000
FTUS43 KMKX 310606 AAA
TAFMSN
TAF AMD
KMSN 310606Z 3106/0106 VRB03KT 1 1/2SM BR SCT005
      TEMPO 3106/3109 1/2SM FG
     FM310900 VRB03KT 1SM BR SCT005
     FM311300 15004KT 3SM BR SCT005
     FM311500 18005KT P6SM SCT015
     FM312100 21008KT P6SM SCT030 SCT100=



000
FTUS43 KMKX 310606 AAA
TAFMSN
TAF AMD
KMSN 310606Z 3106/0106 VRB03KT 1 1/2SM BR SCT005
      TEMPO 3106/3109 1/2SM FG
     FM310900 VRB03KT 1SM BR SCT005
     FM311300 15004KT 3SM BR SCT005
     FM311500 18005KT P6SM SCT015
     FM312100 21008KT P6SM SCT030 SCT100=



000
FTUS43 KMKX 310520
TAFMKE
TAF
KMKE 310520Z 3106/0112 23004KT P6SM SCT025 SCT040
      TEMPO 3107/3109 VRB03KT 5SM BR BKN040
     FM310900 05004KT 3SM BR SCT003 SCT030
      TEMPO 3110/3113 2SM BR BKN003
     FM311300 VRB03KT 4SM BR BKN008
     FM311500 12005KT P6SM SCT015
     FM311800 14005KT P6SM SCT025 SCT150
     FM010300 16007KT P6SM SCT120
     FM011000 17008KT P6SM BKN080=



000
FTUS43 KMKX 310520
TAFMSN
TAF
KMSN 310520Z 3106/0106 VRB03KT P6SM SCT025 SCT080
      TEMPO 3107/3109 5SM BR BKN025
     FM310900 VRB03KT 3SM BR SCT005
      TEMPO 3110/3113 1SM BR BKN005
     FM311300 15004KT 3SM BR SCT005
     FM311500 18005KT P6SM SCT015
      TEMPO 3116/3119 BKN025
     FM312100 21008KT P6SM SCT030 SCT100
     FM010100 18005KT P6SM SCT120=



000
FTUS43 KMKX 310520
TAFMSN
TAF
KMSN 310520Z 3106/0106 VRB03KT P6SM SCT025 SCT080
      TEMPO 3107/3109 5SM BR BKN025
     FM310900 VRB03KT 3SM BR SCT005
      TEMPO 3110/3113 1SM BR BKN005
     FM311300 15004KT 3SM BR SCT005
     FM311500 18005KT P6SM SCT015
      TEMPO 3116/3119 BKN025
     FM312100 21008KT P6SM SCT030 SCT100
     FM010100 18005KT P6SM SCT120=



000
FTUS43 KMKX 310520
TAFMKE
TAF
KMKE 310520Z 3106/0112 23004KT P6SM SCT025 SCT040
      TEMPO 3107/3109 VRB03KT 5SM BR BKN040
     FM310900 05004KT 3SM BR SCT003 SCT030
      TEMPO 3110/3113 2SM BR BKN003
     FM311300 VRB03KT 4SM BR BKN008
     FM311500 12005KT P6SM SCT015
     FM311800 14005KT P6SM SCT025 SCT150
     FM010300 16007KT P6SM SCT120
     FM011000 17008KT P6SM BKN080=



000
FTUS43 KMKX 310252 AAA
TAFMKE
TAF AMD
KMKE 310252Z 3103/0106 26004KT P6SM SCT035
     FM310700 VRB03KT 5SM BR SCT003
     FM310900 VRB03KT 2SM BR BKN005
     FM311300 VRB03KT 4SM BR BKN012
     FM311500 12005KT P6SM SCT020
     FM311800 14005KT P6SM SCT025 SCT150
     FM010300 16007KT P6SM BKN120=



000
FTUS43 KMKX 310252 AAA
TAFMKE
TAF AMD
KMKE 310252Z 3103/0106 26004KT P6SM SCT035
     FM310700 VRB03KT 5SM BR SCT003
     FM310900 VRB03KT 2SM BR BKN005
     FM311300 VRB03KT 4SM BR BKN012
     FM311500 12005KT P6SM SCT020
     FM311800 14005KT P6SM SCT025 SCT150
     FM010300 16007KT P6SM BKN120=



000
FTUS43 KMKX 302329
TAFMSN
TAF
KMSN 302329Z 3100/3124 28005KT P6SM SCT040
     FM310300 VRB03KT P6SM SKC
     FM310800 VRB03KT 1 1/2SM BR SCT060
     FM311000 VRB03KT 1/2SM FG SCT005
      TEMPO 3110/3113 BKN005
     FM311300 15004KT 1 1/2SM BR SCT008
     FM311500 18005KT P6SM SCT025
     FM312100 21008KT P6SM SCT030 SCT100=



000
FTUS43 KMKX 302329
TAFMKE
TAF
KMKE 302329Z 3100/0106 26008KT P6SM SCT035
     FM310500 28003KT P6SM SCT050
     FM310700 VRB03KT 5SM BR SCT003
     FM310900 VRB03KT 2SM BR BKN005
     FM311300 VRB03KT 4SM BR BKN012
     FM311500 12005KT P6SM SCT020
     FM311800 14005KT P6SM SCT025 SCT150
     FM010300 16007KT P6SM BKN120=



000
FTUS43 KMKX 302329
TAFMSN
TAF
KMSN 302329Z 3100/3124 28005KT P6SM SCT040
     FM310300 VRB03KT P6SM SKC
     FM310800 VRB03KT 1 1/2SM BR SCT060
     FM311000 VRB03KT 1/2SM FG SCT005
      TEMPO 3110/3113 BKN005
     FM311300 15004KT 1 1/2SM BR SCT008
     FM311500 18005KT P6SM SCT025
     FM312100 21008KT P6SM SCT030 SCT100=



000
FTUS43 KMKX 302329
TAFMKE
TAF
KMKE 302329Z 3100/0106 26008KT P6SM SCT035
     FM310500 28003KT P6SM SCT050
     FM310700 VRB03KT 5SM BR SCT003
     FM310900 VRB03KT 2SM BR BKN005
     FM311300 VRB03KT 4SM BR BKN012
     FM311500 12005KT P6SM SCT020
     FM311800 14005KT P6SM SCT025 SCT150
     FM010300 16007KT P6SM BKN120=



000
FTUS43 KMKX 302051 AAC
TAFMKE
TAF AMD
KMKE 302051Z 3021/3124 22017G23KT P6SM FEW024 SCT035 BKN050
      TEMPO 3021/3022 4SM -SHRA OVC035
     FM302300 26007KT P6SM SCT030 BKN040
     FM310200 26006KT P6SM BKN060
     FM310500 28004KT P6SM SCT050
     FM310900 VRB03KT 6SM BR SCT003
     FM311000 VRB03KT 2SM BR BKN015
     FM311300 VRB03KT 4SM BR SCT015
     FM311400 21005KT P6SM SCT035
     FM311800 16005KT P6SM SCT140=



000
FTUS43 KMKX 302051 AAC
TAFMKE
TAF AMD
KMKE 302051Z 3021/3124 22017G23KT P6SM FEW024 SCT035 BKN050
      TEMPO 3021/3022 4SM -SHRA OVC035
     FM302300 26007KT P6SM SCT030 BKN040
     FM310200 26006KT P6SM BKN060
     FM310500 28004KT P6SM SCT050
     FM310900 VRB03KT 6SM BR SCT003
     FM311000 VRB03KT 2SM BR BKN015
     FM311300 VRB03KT 4SM BR SCT015
     FM311400 21005KT P6SM SCT035
     FM311800 16005KT P6SM SCT140=



000
FTUS43 KMKX 302037 AAC
TAFMSN
TAF AMD
KMSN 302037Z 3021/3118 29008KT P6SM VCSH SCT025 BKN070
     FM302200 28007KT P6SM BKN050
     FM302300 28005KT P6SM SCT040
     FM310300 00000KT P6SM SCT060
     FM310800 VRB03KT 1 1/2SM BR SCT060
     FM311000 VRB03KT 3/4SM BR SCT005
     FM311300 18004KT 3SM BR SCT010
     FM311400 18005KT P6SM SCT120=



000
FTUS43 KMKX 302037 AAC
TAFMSN
TAF AMD
KMSN 302037Z 3021/3118 29008KT P6SM VCSH SCT025 BKN070
     FM302200 28007KT P6SM BKN050
     FM302300 28005KT P6SM SCT040
     FM310300 00000KT P6SM SCT060
     FM310800 VRB03KT 1 1/2SM BR SCT060
     FM311000 VRB03KT 3/4SM BR SCT005
     FM311300 18004KT 3SM BR SCT010
     FM311400 18005KT P6SM SCT120=



000
FTUS43 KMKX 301953 AAB
TAFMSN
TAF AMD
KMSN 301953Z 3020/3118 27008KT P6SM SCT021 BKN035
      TEMPO 3020/3022 5SM -SHRA
     FM302200 28007KT P6SM BKN035
     FM302300 28005KT P6SM SCT040
     FM310300 00000KT P6SM SCT060
     FM310800 VRB03KT 1 1/2SM BR SCT060
     FM311000 VRB03KT 3/4SM BR SCT005
     FM311300 18004KT 3SM BR SCT010
     FM311400 18005KT P6SM SCT120=



000
FTUS43 KMKX 301953 AAB
TAFMSN
TAF AMD
KMSN 301953Z 3020/3118 27008KT P6SM SCT021 BKN035
      TEMPO 3020/3022 5SM -SHRA
     FM302200 28007KT P6SM BKN035
     FM302300 28005KT P6SM SCT040
     FM310300 00000KT P6SM SCT060
     FM310800 VRB03KT 1 1/2SM BR SCT060
     FM311000 VRB03KT 3/4SM BR SCT005
     FM311300 18004KT 3SM BR SCT010
     FM311400 18005KT P6SM SCT120=



000
FTUS43 KMKX 301951 AAB
TAFMKE
TAF AMD
KMKE 301951Z 3020/3124 25011KT P6SM -RA FEW030 SCT045 SCT060
      TEMPO 3020/3022 4SM -SHRA OVC030
     FM302200 24012KT P6SM VCSH BKN030
     FM302300 26007KT P6SM SCT030 BKN040
     FM310200 26006KT P6SM BKN060
     FM310500 28004KT P6SM SCT050
     FM310900 VRB03KT 6SM BR SCT003
     FM311000 VRB03KT 2SM BR BKN015
     FM311300 VRB03KT 4SM BR SCT015
     FM311400 21005KT P6SM SCT035
     FM311800 16005KT P6SM SCT140=



000
FTUS43 KMKX 301951 AAB
TAFMKE
TAF AMD
KMKE 301951Z 3020/3124 25011KT P6SM -RA FEW030 SCT045 SCT060
      TEMPO 3020/3022 4SM -SHRA OVC030
     FM302200 24012KT P6SM VCSH BKN030
     FM302300 26007KT P6SM SCT030 BKN040
     FM310200 26006KT P6SM BKN060
     FM310500 28004KT P6SM SCT050
     FM310900 VRB03KT 6SM BR SCT003
     FM311000 VRB03KT 2SM BR BKN015
     FM311300 VRB03KT 4SM BR SCT015
     FM311400 21005KT P6SM SCT035
     FM311800 16005KT P6SM SCT140=



000
FTUS43 KMKX 301834 AAA
TAFMKE
TAF AMD
KMKE 301834Z 3019/3124 23014G24KT P6SM SCT026 BKN030 BKN060
      TEMPO 3019/3021 4SM -SHRA OVC030
     FM302100 24012KT P6SM VCSH BKN030
     FM302300 26007KT P6SM SCT030 BKN040
     FM310200 26006KT P6SM BKN060
     FM310500 28004KT P6SM SCT050
     FM310900 VRB03KT 6SM BR SCT003
     FM311000 VRB03KT 2SM BR BKN015
     FM311300 VRB03KT 4SM BR SCT015
     FM311400 21005KT P6SM SCT035
     FM311800 16005KT P6SM SCT140=



000
FTUS43 KMKX 301833 AAA
TAFMSN
TAF AMD
KMSN 301833Z 3019/3118 24007KT P6SM -RA VCSH SCT021 BKN030 BKN040
     FM302000 27008KT P6SM OVC028
     FM302100 28007KT P6SM BKN035
     FM302300 28005KT P6SM SCT040
     FM310300 00000KT P6SM SCT060
     FM310800 VRB03KT 1 1/2SM BR SCT060
     FM311000 VRB03KT 3/4SM BR SCT005
     FM311300 18004KT 3SM BR SCT010
     FM311400 18005KT P6SM SCT120=



000
FTUS43 KMKX 301833 AAA
TAFMSN
TAF AMD
KMSN 301833Z 3019/3118 24007KT P6SM -RA VCSH SCT021 BKN030 BKN040
     FM302000 27008KT P6SM OVC028
     FM302100 28007KT P6SM BKN035
     FM302300 28005KT P6SM SCT040
     FM310300 00000KT P6SM SCT060
     FM310800 VRB03KT 1 1/2SM BR SCT060
     FM311000 VRB03KT 3/4SM BR SCT005
     FM311300 18004KT 3SM BR SCT010
     FM311400 18005KT P6SM SCT120=



000
FTUS43 KMKX 301726
TAFMSN
TAF
KMSN 301726Z 3018/3118 23009KT P6SM SCT015 OVC035
      TEMPO 3018/3019 3SM -SHRA BKN018
     FM301900 25008KT P6SM VCSH OVC017
     FM302000 27008KT P6SM OVC020
     FM302100 28007KT P6SM BKN035
     FM302300 28005KT P6SM SCT040
     FM310300 00000KT P6SM SCT060
     FM310800 VRB03KT 1 1/2SM BR SCT060
     FM311000 VRB03KT 3/4SM BR SCT005
     FM311300 18004KT 3SM BR SCT010
     FM311400 18005KT P6SM SCT120=



000
FTUS43 KMKX 301726
TAFMSN
TAF
KMSN 301726Z 3018/3118 23009KT P6SM SCT015 OVC035
      TEMPO 3018/3019 3SM -SHRA BKN018
     FM301900 25008KT P6SM VCSH OVC017
     FM302000 27008KT P6SM OVC020
     FM302100 28007KT P6SM BKN035
     FM302300 28005KT P6SM SCT040
     FM310300 00000KT P6SM SCT060
     FM310800 VRB03KT 1 1/2SM BR SCT060
     FM311000 VRB03KT 3/4SM BR SCT005
     FM311300 18004KT 3SM BR SCT010
     FM311400 18005KT P6SM SCT120=



000
FTUS43 KMKX 301726
TAFMKE
TAF
KMKE 301726Z 3018/3124 24013G20KT P6SM BKN025 OVC035
      TEMPO 3018/3020 3SM -SHRA OVC030
     FM302000 24012KT P6SM VCSH BKN030
     FM302300 26007KT P6SM SCT030 BKN040
     FM310200 26006KT P6SM BKN060
     FM310500 28004KT P6SM SCT050
     FM310900 VRB03KT 6SM BR SCT003
     FM311000 VRB03KT 2SM BR BKN015
     FM311300 VRB03KT 4SM BR SCT015
     FM311400 21005KT P6SM SCT035
     FM311800 16005KT P6SM SCT140=



000
FTUS43 KMKX 301726
TAFMKE
TAF
KMKE 301726Z 3018/3124 24013G20KT P6SM BKN025 OVC035
      TEMPO 3018/3020 3SM -SHRA OVC030
     FM302000 24012KT P6SM VCSH BKN030
     FM302300 26007KT P6SM SCT030 BKN040
     FM310200 26006KT P6SM BKN060
     FM310500 28004KT P6SM SCT050
     FM310900 VRB03KT 6SM BR SCT003
     FM311000 VRB03KT 2SM BR BKN015
     FM311300 VRB03KT 4SM BR SCT015
     FM311400 21005KT P6SM SCT035
     FM311800 16005KT P6SM SCT140=



000
FTUS43 KMKX 301706 AAE
TAFMKE
TAF AMD
KMKE 301706Z 3017/3118 27009G24KT 2SM +RA BR FEW006 BKN021 OVC045
      TEMPO 3017/3018 4SM -SHRA OVC030
     FM301800 24014KT P6SM VCSH BKN035
     FM302100 24012KT P6SM BKN040
     FM310200 24004KT P6SM SCT040
     FM310800 VRB03KT 2SM BR SCT060
     FM311400 23007KT P6SM FEW080=



000
FTUS43 KMKX 301706 AAE
TAFMSN
TAF AMD
KMSN 301706Z 3017/3112 22005KT 2SM -RA BR VCSH SCT011 BKN016 OVC025
     FM302000 24012KT P6SM BKN040
     FM310200 24004KT P6SM SCT040
     FM310800 VRB03KT 1 1/2SM BR SCT060=



000
FTUS43 KMKX 301706 AAE
TAFMSN
TAF AMD
KMSN 301706Z 3017/3112 22005KT 2SM -RA BR VCSH SCT011 BKN016 OVC025
     FM302000 24012KT P6SM BKN040
     FM310200 24004KT P6SM SCT040
     FM310800 VRB03KT 1 1/2SM BR SCT060=



000
FTUS43 KMKX 301706 AAE
TAFMKE
TAF AMD
KMKE 301706Z 3017/3118 27009G24KT 2SM +RA BR FEW006 BKN021 OVC045
      TEMPO 3017/3018 4SM -SHRA OVC030
     FM301800 24014KT P6SM VCSH BKN035
     FM302100 24012KT P6SM BKN040
     FM310200 24004KT P6SM SCT040
     FM310800 VRB03KT 2SM BR SCT060
     FM311400 23007KT P6SM FEW080=



000
FTUS43 KMKX 301701 AAD
TAFMKE
TAF AMD
KMKE 301701Z 3017/3118 27015G24KT 3/4SM -RA BR BKN021 BKN040 OVC050
      TEMPO 3017/3018 4SM -SHRA OVC030
     FM301800 24014KT P6SM VCSH BKN035
     FM302100 24012KT P6SM BKN040
     FM310200 24004KT P6SM SCT040
     FM310800 VRB03KT 2SM BR SCT060
     FM311400 23007KT P6SM FEW080=



000
FTUS43 KMKX 301701 AAD
TAFMKE
TAF AMD
KMKE 301701Z 3017/3118 27015G24KT 3/4SM -RA BR BKN021 BKN040 OVC050
      TEMPO 3017/3018 4SM -SHRA OVC030
     FM301800 24014KT P6SM VCSH BKN035
     FM302100 24012KT P6SM BKN040
     FM310200 24004KT P6SM SCT040
     FM310800 VRB03KT 2SM BR SCT060
     FM311400 23007KT P6SM FEW080=



000
FTUS43 KMKX 301624 AAC
TAFMKE
TAF AMD
KMKE 301624Z 3016/3118 22012G20KT P6SM VCSH SCT030 OVC040
      TEMPO 3016/3018 4SM -SHRA OVC030
     FM301800 24014KT P6SM VCTS BKN035CB
     FM302100 24012KT P6SM BKN040
     FM310200 24004KT P6SM SCT040
     FM310800 VRB03KT 2SM BR SCT060
     FM311400 23007KT P6SM FEW080=



000
FTUS43 KMKX 301624 AAC
TAFMKE
TAF AMD
KMKE 301624Z 3016/3118 22012G20KT P6SM VCSH SCT030 OVC040
      TEMPO 3016/3018 4SM -SHRA OVC030
     FM301800 24014KT P6SM VCTS BKN035CB
     FM302100 24012KT P6SM BKN040
     FM310200 24004KT P6SM SCT040
     FM310800 VRB03KT 2SM BR SCT060
     FM311400 23007KT P6SM FEW080=



000
FTUS43 KMKX 301618 AAD
TAFMSN
TAF AMD
KMSN 301618Z 3016/3112 22008KT 2SM -RA BR VCSH SCT008 BKN020 OVC029
     FM301700 24014KT P6SM VCSH BKN025
     FM302000 24012KT P6SM BKN040
     FM310200 24004KT P6SM SCT040
     FM310800 VRB03KT 1 1/2SM BR SCT060=



000
FTUS43 KMKX 301618 AAD
TAFMSN
TAF AMD
KMSN 301618Z 3016/3112 22008KT 2SM -RA BR VCSH SCT008 BKN020 OVC029
     FM301700 24014KT P6SM VCSH BKN025
     FM302000 24012KT P6SM BKN040
     FM310200 24004KT P6SM SCT040
     FM310800 VRB03KT 1 1/2SM BR SCT060=



000
FTUS43 KMKX 301521 AAB
TAFMKE
TAF AMD
KMKE 301521Z 3015/3118 24015KT P6SM VCSH FEW015 FEW060 FEW130
      SCT250
     FM301600 22012KT P6SM VCSH SCT018 BKN030 OVC050
     FM301700 24014KT P6SM VCTS BKN035CB
     FM302100 24012KT P6SM BKN040
     FM310200 24004KT P6SM SCT040
     FM310800 VRB03KT 2SM BR SCT060
     FM311400 23007KT P6SM FEW080=



000
FTUS43 KMKX 301521 AAB
TAFMKE
TAF AMD
KMKE 301521Z 3015/3118 24015KT P6SM VCSH FEW015 FEW060 FEW130
      SCT250
     FM301600 22012KT P6SM VCSH SCT018 BKN030 OVC050
     FM301700 24014KT P6SM VCTS BKN035CB
     FM302100 24012KT P6SM BKN040
     FM310200 24004KT P6SM SCT040
     FM310800 VRB03KT 2SM BR SCT060
     FM311400 23007KT P6SM FEW080=



000
FTUS43 KMKX 301441 AAC
TAFMSN
TAF AMD
KMSN 301441Z 3015/3112 20009KT P6SM VCSH OVC013
      TEMPO 3015/3016 4SM -SHRA OVC012
     FM301600 21008KT P6SM VCSH SCT008 BKN018 OVC050
     FM301700 24014KT P6SM VCTS BKN025CB
     FM302000 24012KT P6SM BKN040
     FM310200 24004KT P6SM SCT040
     FM310800 VRB03KT 1 1/2SM BR SCT060=



000
FTUS43 KMKX 301441 AAC
TAFMSN
TAF AMD
KMSN 301441Z 3015/3112 20009KT P6SM VCSH OVC013
      TEMPO 3015/3016 4SM -SHRA OVC012
     FM301600 21008KT P6SM VCSH SCT008 BKN018 OVC050
     FM301700 24014KT P6SM VCTS BKN025CB
     FM302000 24012KT P6SM BKN040
     FM310200 24004KT P6SM SCT040
     FM310800 VRB03KT 1 1/2SM BR SCT060=



000
FTUS43 KMKX 301434 AAB
TAFMSN
TAF AMD
KMSN 301434Z 3015/3112 20008KT P6SM VCSH SCT013 BKN021 OVC060
      TEMPO 3015/3016 4SM -SHRA OVC016
     FM301600 21008KT P6SM VCSH SCT008 BKN018 OVC050
     FM301700 24014KT P6SM VCTS BKN025CB
     FM302000 24012KT P6SM BKN040
     FM310200 24004KT P6SM SCT040
     FM310800 VRB03KT 1 1/2SM BR SCT060=



000
FTUS43 KMKX 301420 AAA
TAFMKE
TAF AMD
KMKE 301420Z 3014/3118 21014KT P6SM VCSH FEW015 FEW060 FEW130
      SCT230
     FM301600 22012KT P6SM VCSH SCT018 BKN030 OVC050
     FM301700 24014KT P6SM VCTS BKN035CB
     FM302100 24012KT P6SM BKN040
     FM310200 24004KT P6SM SCT040
     FM310800 VRB03KT 2SM BR SCT060
     FM311400 23007KT P6SM FEW080=



000
FTUS43 KMKX 301420 AAA
TAFMKE
TAF AMD
KMKE 301420Z 3014/3118 21014KT P6SM VCSH FEW015 FEW060 FEW130
      SCT230
     FM301600 22012KT P6SM VCSH SCT018 BKN030 OVC050
     FM301700 24014KT P6SM VCTS BKN035CB
     FM302100 24012KT P6SM BKN040
     FM310200 24004KT P6SM SCT040
     FM310800 VRB03KT 2SM BR SCT060
     FM311400 23007KT P6SM FEW080=



000
FTUS43 KMKX 301232 AAA
TAFMSN
TAF AMD
KMSN 301232Z 3013/3112 19008KT P6SM VCSH SCT008 BKN012 OVC022
     FM301600 21008KT P6SM VCSH SCT008 BKN018 OVC050
     FM301700 24014KT P6SM VCTS BKN025CB
     FM302000 24012KT P6SM BKN040
     FM310200 24004KT P6SM SCT040
     FM310800 VRB03KT 1 1/2SM BR SCT060=



000
FTUS43 KMKX 301232 AAA
TAFMSN
TAF AMD
KMSN 301232Z 3013/3112 19008KT P6SM VCSH SCT008 BKN012 OVC022
     FM301600 21008KT P6SM VCSH SCT008 BKN018 OVC050
     FM301700 24014KT P6SM VCTS BKN025CB
     FM302000 24012KT P6SM BKN040
     FM310200 24004KT P6SM SCT040
     FM310800 VRB03KT 1 1/2SM BR SCT060=



000
FTUS43 KMKX 301120
TAFMSN
TAF
KMSN 301120Z 3012/3112 22008KT P6SM VCSH BKN008 OVC015
     FM301600 23008KT P6SM VCSH SCT008 BKN018 OVC050
     FM301700 24014KT P6SM VCTS BKN025CB
     FM302000 24012KT P6SM BKN040
     FM310200 24004KT P6SM SCT040
     FM310800 VRB03KT 1 1/2SM BR SCT060=



000
FTUS43 KMKX 301120
TAFMSN
TAF
KMSN 301120Z 3012/3112 22008KT P6SM VCSH BKN008 OVC015
     FM301600 23008KT P6SM VCSH SCT008 BKN018 OVC050
     FM301700 24014KT P6SM VCTS BKN025CB
     FM302000 24012KT P6SM BKN040
     FM310200 24004KT P6SM SCT040
     FM310800 VRB03KT 1 1/2SM BR SCT060=



000
FTUS43 KMKX 301120
TAFMKE
TAF
KMKE 301120Z 3012/3118 23011KT P6SM VCSH SCT008 OVC015
     FM301600 22012KT P6SM VCSH SCT018 BKN030 OVC050
     FM301700 24014KT P6SM VCTS BKN035CB
     FM302100 24012KT P6SM BKN040
     FM310200 24004KT P6SM SCT040
     FM310800 VRB03KT 2SM BR SCT060
     FM311400 23007KT P6SM FEW080=



000
FTUS43 KMKX 301120
TAFMKE
TAF
KMKE 301120Z 3012/3118 23011KT P6SM VCSH SCT008 OVC015
     FM301600 22012KT P6SM VCSH SCT018 BKN030 OVC050
     FM301700 24014KT P6SM VCTS BKN035CB
     FM302100 24012KT P6SM BKN040
     FM310200 24004KT P6SM SCT040
     FM310800 VRB03KT 2SM BR SCT060
     FM311400 23007KT P6SM FEW080=



000
FTUS43 KMKX 300957 AAB
TAFMSN
TAF AMD
KMSN 300957Z 3010/3106 22008KT P6SM VCSH SCT008 BKN014 OVC023
     FM301100 22008KT P6SM VCSH BKN007 OVC014
     FM301500 22012KT 6SM -SHRA BR SCT018 BKN022 OVC050
     FM301700 24007KT P6SM VCTS BKN020CB
     FM310100 23005KT P6SM SCT025=



000
FTUS43 KMKX 300957 AAB
TAFMSN
TAF AMD
KMSN 300957Z 3010/3106 22008KT P6SM VCSH SCT008 BKN014 OVC023
     FM301100 22008KT P6SM VCSH BKN007 OVC014
     FM301500 22012KT 6SM -SHRA BR SCT018 BKN022 OVC050
     FM301700 24007KT P6SM VCTS BKN020CB
     FM310100 23005KT P6SM SCT025=



000
FTUS43 KMKX 300952 AAB
TAFMKE
TAF AMD
KMKE 300952Z 3010/3112 21009G15KT P6SM SCT015 BKN022
      TEMPO 3010/3012 BKN015
     FM301200 21010G15KT P6SM VCSH SCT008 OVC018
     FM301500 22012KT 6SM -SHRA BR SCT018 BKN030 OVC050
     FM301700 22010KT P6SM VCSH BKN035
     FM302100 24009KT P6SM BKN040
     FM310200 24003KT P6SM SCT040=



000
FTUS43 KMKX 300952 AAB
TAFMKE
TAF AMD
KMKE 300952Z 3010/3112 21009G15KT P6SM SCT015 BKN022
      TEMPO 3010/3012 BKN015
     FM301200 21010G15KT P6SM VCSH SCT008 OVC018
     FM301500 22012KT 6SM -SHRA BR SCT018 BKN030 OVC050
     FM301700 22010KT P6SM VCSH BKN035
     FM302100 24009KT P6SM BKN040
     FM310200 24003KT P6SM SCT040=



000
FTUS43 KMKX 300726 AAA
TAFMSN
TAF AMD
KMSN 300726Z 3007/3106 18011KT P6SM VCTS SCT012 BKN025CB OVC050
      TEMPO 3008/3010 BKN012CB
     FM301000 21005KT 5SM BR VCTS SCT008 OVC015CB
     FM301200 24006KT 5SM -SHRA VCTS OVC012CB
     FM301700 24007KT P6SM VCTS BKN020CB
     FM310100 23005KT P6SM SCT025=



000
FTUS43 KMKX 300726 AAA
TAFMSN
TAF AMD
KMSN 300726Z 3007/3106 18011KT P6SM VCTS SCT012 BKN025CB OVC050
      TEMPO 3008/3010 BKN012CB
     FM301000 21005KT 5SM BR VCTS SCT008 OVC015CB
     FM301200 24006KT 5SM -SHRA VCTS OVC012CB
     FM301700 24007KT P6SM VCTS BKN020CB
     FM310100 23005KT P6SM SCT025=



000
FTUS43 KMKX 300724 AAA
TAFMKE
TAF AMD
KMKE 300724Z 3007/3112 18009KT P6SM VCTS SCT030 BKN050CB
     FM301000 20009KT 5SM BR VCTS SCT012 BKN035CB
     FM301200 20009KT 5SM BR VCSH SCT008 OVC025
     FM301500 22010KT 5SM -SHRA BR SCT008 OVC018
     FM301700 22010KT P6SM VCSH BKN025
     FM302100 24009KT P6SM BKN040
     FM310200 24003KT P6SM SCT040=



000
FTUS43 KMKX 300724 AAA
TAFMKE
TAF AMD
KMKE 300724Z 3007/3112 18009KT P6SM VCTS SCT030 BKN050CB
     FM301000 20009KT 5SM BR VCTS SCT012 BKN035CB
     FM301200 20009KT 5SM BR VCSH SCT008 OVC025
     FM301500 22010KT 5SM -SHRA BR SCT008 OVC018
     FM301700 22010KT P6SM VCSH BKN025
     FM302100 24009KT P6SM BKN040
     FM310200 24003KT P6SM SCT040=



000
FTUS43 KMKX 300522
TAFMSN
TAF
KMSN 300522Z 3006/3106 18011KT P6SM VCTS SCT035 BKN080CB
      TEMPO 3006/3008 5SM TSRA BKN035CB
     FM300800 20008KT P6SM VCTS SCT025 OVC035CB
      TEMPO 3008/3009 5SM -TSRA BKN025CB
     FM300900 21005KT 5SM BR VCTS SCT008 OVC015CB
     FM301200 24006KT 5SM -SHRA VCTS OVC012CB
     FM301700 24007KT P6SM VCTS BKN020CB
     FM310100 23005KT P6SM SCT025=



000
FTUS43 KMKX 300522
TAFMKE
TAF
KMKE 300522Z 3006/3112 17010KT P6SM SCT120 BKN250
     FM300700 18009KT P6SM VCTS SCT030 BKN050CB
      TEMPO 3008/3010 5SM -TSRA BR BKN030CB
     FM301000 20009KT 5SM BR VCTS SCT012 BKN035CB
     FM301200 20009KT 5SM BR VCSH SCT008 OVC025
     FM301500 22010KT 5SM -SHRA BR SCT008 OVC018
     FM301700 22010KT P6SM VCSH BKN025
     FM302100 24009KT P6SM BKN040
     FM310200 24003KT P6SM SCT040=



000
FTUS43 KMKX 300522
TAFMKE
TAF
KMKE 300522Z 3006/3112 17010KT P6SM SCT120 BKN250
     FM300700 18009KT P6SM VCTS SCT030 BKN050CB
      TEMPO 3008/3010 5SM -TSRA BR BKN030CB
     FM301000 20009KT 5SM BR VCTS SCT012 BKN035CB
     FM301200 20009KT 5SM BR VCSH SCT008 OVC025
     FM301500 22010KT 5SM -SHRA BR SCT008 OVC018
     FM301700 22010KT P6SM VCSH BKN025
     FM302100 24009KT P6SM BKN040
     FM310200 24003KT P6SM SCT040=



000
FTUS43 KMKX 300522
TAFMSN
TAF
KMSN 300522Z 3006/3106 18011KT P6SM VCTS SCT035 BKN080CB
      TEMPO 3006/3008 5SM TSRA BKN035CB
     FM300800 20008KT P6SM VCTS SCT025 OVC035CB
      TEMPO 3008/3009 5SM -TSRA BKN025CB
     FM300900 21005KT 5SM BR VCTS SCT008 OVC015CB
     FM301200 24006KT 5SM -SHRA VCTS OVC012CB
     FM301700 24007KT P6SM VCTS BKN020CB
     FM310100 23005KT P6SM SCT025=



000
FTUS43 KMKX 300230 AAA
TAFMSN
TAF AMD
KMSN 300230Z 3003/3024 18010KT P6SM VCTS SCT035 BKN080CB
      TEMPO 3004/3006 5SM TSRA BKN035CB
     FM300600 19008KT P6SM VCTS SCT025 OVC035CB
      TEMPO 3006/3009 4SM TSRA BKN025CB
     FM301000 21005KT 2SM TSRA BR SCT008 OVC015CB
     FM301400 24006KT 5SM -SHRA OVC012
     FM301700 24007KT P6SM BKN020=



000
FTUS43 KMKX 300230 AAA
TAFMSN
TAF AMD
KMSN 300230Z 3003/3024 18010KT P6SM VCTS SCT035 BKN080CB
      TEMPO 3004/3006 5SM TSRA BKN035CB
     FM300600 19008KT P6SM VCTS SCT025 OVC035CB
      TEMPO 3006/3009 4SM TSRA BKN025CB
     FM301000 21005KT 2SM TSRA BR SCT008 OVC015CB
     FM301400 24006KT 5SM -SHRA OVC012
     FM301700 24007KT P6SM BKN020=



000
FTUS43 KMKX 300148 AAA
TAFMKE
TAF AMD
KMKE 300148Z 3002/3106 17011KT P6SM SCT120 BKN250
     FM300400 18010KT P6SM VCTS SCT035CB BKN080
      TEMPO 3004/3007 4SM -TSRA BKN035CB
     FM300700 19009KT P6SM VCTS SCT020 BKN040CB
      TEMPO 3007/3010 3SM TSRA BKN020CB
     FM301000 20009KT 5SM -TSRA SCT008 BKN025CB
     FM301200 20009KT 5SM -TSRA BR OVC020CB
     FM301500 22010KT 5SM BR VCTS SCT008 OVC018CB
     FM301700 22010KT P6SM VCSH BKN025
     FM302100 24009KT P6SM VCTS BKN050CB=



000
FTUS43 KMKX 300148 AAA
TAFMKE
TAF AMD
KMKE 300148Z 3002/3106 17011KT P6SM SCT120 BKN250
     FM300400 18010KT P6SM VCTS SCT035CB BKN080
      TEMPO 3004/3007 4SM -TSRA BKN035CB
     FM300700 19009KT P6SM VCTS SCT020 BKN040CB
      TEMPO 3007/3010 3SM TSRA BKN020CB
     FM301000 20009KT 5SM -TSRA SCT008 BKN025CB
     FM301200 20009KT 5SM -TSRA BR OVC020CB
     FM301500 22010KT 5SM BR VCTS SCT008 OVC018CB
     FM301700 22010KT P6SM VCSH BKN025
     FM302100 24009KT P6SM VCTS BKN050CB=



000
FTUS43 KMKX 292332
TAFMKE
TAF
KMKE 292332Z 3000/3106 16011KT P6SM SCT035 BKN120
     FM300200 18010KT P6SM VCTS SCT035CB BKN080
      TEMPO 3002/3005 4SM -TSRA BKN035CB
     FM300500 19009KT P6SM VCTS SCT020 BKN040CB
      TEMPO 3005/3008 3SM TSRA BKN020CB
     FM300800 20009KT 5SM -TSRA SCT008 BKN025CB
     FM301200 20009KT 5SM -TSRA BR OVC020CB
     FM301500 22010KT 5SM BR VCTS SCT008 OVC018CB
     FM301700 22010KT P6SM VCSH BKN025
     FM302100 24009KT P6SM VCTS BKN050CB=



000
FTUS43 KMKX 292332
TAFMKE
TAF
KMKE 292332Z 3000/3106 16011KT P6SM SCT035 BKN120
     FM300200 18010KT P6SM VCTS SCT035CB BKN080
      TEMPO 3002/3005 4SM -TSRA BKN035CB
     FM300500 19009KT P6SM VCTS SCT020 BKN040CB
      TEMPO 3005/3008 3SM TSRA BKN020CB
     FM300800 20009KT 5SM -TSRA SCT008 BKN025CB
     FM301200 20009KT 5SM -TSRA BR OVC020CB
     FM301500 22010KT 5SM BR VCTS SCT008 OVC018CB
     FM301700 22010KT P6SM VCSH BKN025
     FM302100 24009KT P6SM VCTS BKN050CB=



000
FTUS43 KMKX 292332
TAFMSN
TAF
KMSN 292332Z 3000/3024 17009KT P6SM SCT050 SCT100
     FM300200 18010KT P6SM VCTS SCT035 BKN080CB
      TEMPO 3003/3006 3SM TSRA BKN035CB
     FM300600 19008KT P6SM VCTS SCT025 OVC035CB
      TEMPO 3006/3009 4SM TSRA BKN025CB
     FM301000 21005KT 2SM TSRA BR SCT008 OVC015CB
     FM301400 24006KT 5SM -SHRA OVC012
     FM301700 24007KT P6SM BKN020=



000
FTUS43 KMKX 292332
TAFMSN
TAF
KMSN 292332Z 3000/3024 17009KT P6SM SCT050 SCT100
     FM300200 18010KT P6SM VCTS SCT035 BKN080CB
      TEMPO 3003/3006 3SM TSRA BKN035CB
     FM300600 19008KT P6SM VCTS SCT025 OVC035CB
      TEMPO 3006/3009 4SM TSRA BKN025CB
     FM301000 21005KT 2SM TSRA BR SCT008 OVC015CB
     FM301400 24006KT 5SM -SHRA OVC012
     FM301700 24007KT P6SM BKN020=



000
FTUS43 KMKX 292019 AAA
TAFMKE
TAF AMD
KMKE 292019Z 2920/3024 13009KT P6SM BKN130
     FM300300 18011KT P6SM SCT070 BKN120
     FM300500 19009KT 6SM -TSRA BR SCT020 BKN090CB
     FM301200 20009KT 5SM -TSRA BR OVC020CB
     FM301500 22010KT 6SM -SHRA OVC018
     FM301700 22010KT P6SM VCSH BKN025
     FM302100 24009KT P6SM VCTS BKN050CB=



000
FTUS43 KMKX 292019 AAA
TAFMKE
TAF AMD
KMKE 292019Z 2920/3024 13009KT P6SM BKN130
     FM300300 18011KT P6SM SCT070 BKN120
     FM300500 19009KT 6SM -TSRA BR SCT020 BKN090CB
     FM301200 20009KT 5SM -TSRA BR OVC020CB
     FM301500 22010KT 6SM -SHRA OVC018
     FM301700 22010KT P6SM VCSH BKN025
     FM302100 24009KT P6SM VCTS BKN050CB=



000
FTUS43 KMKX 291731
TAFMSN
TAF
KMSN 291731Z 2918/3018 18013KT P6SM SCT020 BKN120
     FM300000 17010KT P6SM BKN090
     FM300300 18010KT 6SM -TSRA BKN080CB
     FM300900 20005KT 6SM SHRA OVC030
     FM301000 21005KT 2SM TSRA BR OVC008CB
     FM301400 24006KT 5SM -SHRA OVC012
     FM301700 24007KT P6SM BKN020=



000
FTUS43 KMKX 291731
TAFMKE
TAF
KMKE 291731Z 2918/3024 18013KT P6SM SCT070 BKN150
      TEMPO 2918/2921 3SM -TSRA BKN050CB
     FM300300 18011KT P6SM SCT070 BKN120
     FM300500 19009KT 6SM -TSRA BR SCT020 BKN090CB
     FM301200 20009KT 5SM -TSRA BR OVC020CB
     FM301500 22010KT 6SM -SHRA OVC018
     FM301700 22010KT P6SM VCSH BKN025
     FM302100 24009KT P6SM VCTS BKN050CB=



000
FTUS43 KMKX 291731
TAFMSN
TAF
KMSN 291731Z 2918/3018 18013KT P6SM SCT020 BKN120
     FM300000 17010KT P6SM BKN090
     FM300300 18010KT 6SM -TSRA BKN080CB
     FM300900 20005KT 6SM SHRA OVC030
     FM301000 21005KT 2SM TSRA BR OVC008CB
     FM301400 24006KT 5SM -SHRA OVC012
     FM301700 24007KT P6SM BKN020=



000
FTUS43 KMKX 291731
TAFMKE
TAF
KMKE 291731Z 2918/3024 18013KT P6SM SCT070 BKN150
      TEMPO 2918/2921 3SM -TSRA BKN050CB
     FM300300 18011KT P6SM SCT070 BKN120
     FM300500 19009KT 6SM -TSRA BR SCT020 BKN090CB
     FM301200 20009KT 5SM -TSRA BR OVC020CB
     FM301500 22010KT 6SM -SHRA OVC018
     FM301700 22010KT P6SM VCSH BKN025
     FM302100 24009KT P6SM VCTS BKN050CB=



000
FTUS43 KMKX 291314 AAA
TAFMKE
TAF AMD
KMKE 291314Z 2913/3018 17009KT P6SM VCTS SCT060 BKN080CB
      TEMPO 2913/2915 4SM -TSRA SCT003 OVC025CB
     FM291600 18009KT P6SM SCT025 BKN130
     FM292300 19010G17KT P6SM VCTS SCT040CB BKN100
     FM300200 18008KT 4SM -TSRA BR BKN035CB OVC060
     FM300800 20005KT 6SM -SHRA BR OVC035
     FM301000 VRB03KT 4SM BR OVC025
     FM301500 24008KT P6SM SCT025 OVC050=



000
FTUS43 KMKX 291314 AAA
TAFMKE
TAF AMD
KMKE 291314Z 2913/3018 17009KT P6SM VCTS SCT060 BKN080CB
      TEMPO 2913/2915 4SM -TSRA SCT003 OVC025CB
     FM291600 18009KT P6SM SCT025 BKN130
     FM292300 19010G17KT P6SM VCTS SCT040CB BKN100
     FM300200 18008KT 4SM -TSRA BR BKN035CB OVC060
     FM300800 20005KT 6SM -SHRA BR OVC035
     FM301000 VRB03KT 4SM BR OVC025
     FM301500 24008KT P6SM SCT025 OVC050=



000
FTUS43 KMKX 291313 AAA
TAFMSN
TAF AMD
KMSN 291313Z 2913/3012 16006KT 3SM BR SCT006 BKN100
     FM291500 18009KT P6SM SCT025 BKN130
     FM292100 19010G17KT P6SM VCTS SCT040CB BKN100
     FM300000 18008KT 4SM -TSRA BR BKN035CB OVC060
     FM300600 20005KT 6SM -SHRA BR OVC035
     FM300900 VRB03KT 4SM BR OVC025=



000
FTUS43 KMKX 291313 AAA
TAFMSN
TAF AMD
KMSN 291313Z 2913/3012 16006KT 3SM BR SCT006 BKN100
     FM291500 18009KT P6SM SCT025 BKN130
     FM292100 19010G17KT P6SM VCTS SCT040CB BKN100
     FM300000 18008KT 4SM -TSRA BR BKN035CB OVC060
     FM300600 20005KT 6SM -SHRA BR OVC035
     FM300900 VRB03KT 4SM BR OVC025=



000
FTUS43 KMKX 291140
TAFMSN
TAF
KMSN 291140Z 2912/3012 15005KT 6SM BR VCTS BKN006 OVC025CB
      TEMPO 2912/2914 4SM -TSRA BKN003 OVC025CB
     FM291500 18009KT P6SM SCT025 BKN130
     FM292100 19010G17KT P6SM VCTS SCT040CB BKN100
     FM300000 18008KT 4SM -TSRA BR BKN035CB OVC060
     FM300600 20005KT 6SM -SHRA BR OVC035
     FM300900 VRB03KT 4SM BR OVC025=



000
FTUS43 KMKX 291140
TAFMKE
TAF
KMKE 291140Z 2912/3018 16007KT P6SM SCT025 BKN090
     FM291300 18006KT P6SM VCTS FEW006 SCT025CB
      TEMPO 2913/2915 4SM -TSRA BKN003 OVC025CB
     FM291600 18009KT P6SM SCT025 BKN130
     FM292300 19010G17KT P6SM VCTS SCT040CB BKN100
     FM300200 18008KT 4SM -TSRA BR BKN035CB OVC060
     FM300800 20005KT 6SM -SHRA BR OVC035
     FM301000 VRB03KT 4SM BR OVC025
     FM301500 24008KT P6SM SCT025 OVC050=



000
FTUS43 KMKX 291140
TAFMKE
TAF
KMKE 291140Z 2912/3018 16007KT P6SM SCT025 BKN090
     FM291300 18006KT P6SM VCTS FEW006 SCT025CB
      TEMPO 2913/2915 4SM -TSRA BKN003 OVC025CB
     FM291600 18009KT P6SM SCT025 BKN130
     FM292300 19010G17KT P6SM VCTS SCT040CB BKN100
     FM300200 18008KT 4SM -TSRA BR BKN035CB OVC060
     FM300800 20005KT 6SM -SHRA BR OVC035
     FM301000 VRB03KT 4SM BR OVC025
     FM301500 24008KT P6SM SCT025 OVC050=



000
FTUS43 KMKX 291140
TAFMSN
TAF
KMSN 291140Z 2912/3012 15005KT 6SM BR VCTS BKN006 OVC025CB
      TEMPO 2912/2914 4SM -TSRA BKN003 OVC025CB
     FM291500 18009KT P6SM SCT025 BKN130
     FM292100 19010G17KT P6SM VCTS SCT040CB BKN100
     FM300000 18008KT 4SM -TSRA BR BKN035CB OVC060
     FM300600 20005KT 6SM -SHRA BR OVC035
     FM300900 VRB03KT 4SM BR OVC025=



000
FTUS43 KMKX 290949 AAA
TAFMKE
TAF AMD
KMKE 290949Z 2910/3012 16007KT P6SM VCTS SCT025 BKN040CB OVC070
     FM291500 18011G15KT P6SM SCT040 BKN080
     FM300300 18008KT P6SM SCT040 BKN070
      TEMPO 3003/3007 4SM TSRA SCT020 BKN035CB OVC050=



000
FTUS43 KMKX 290949 AAA
TAFMKE
TAF AMD
KMKE 290949Z 2910/3012 16007KT P6SM VCTS SCT025 BKN040CB OVC070
     FM291500 18011G15KT P6SM SCT040 BKN080
     FM300300 18008KT P6SM SCT040 BKN070
      TEMPO 3003/3007 4SM TSRA SCT020 BKN035CB OVC050=



000
FTUS43 KMKX 290948 AAA
TAFMSN
TAF AMD
KMSN 290948Z 2910/3006 17005KT P6SM VCTS FEW009 BKN040CB OVC070
      TEMPO 2910/2912 4SM -TSRA BR BKN009 OVC025CB
     FM291300 18011G15KT P6SM SCT040 BKN080
     FM300200 18008KT P6SM SCT040 BKN070
      TEMPO 3002/3006 4SM TSRA SCT020 BKN035CB OVC050=



000
FTUS43 KMKX 290948 AAA
TAFMSN
TAF AMD
KMSN 290948Z 2910/3006 17005KT P6SM VCTS FEW009 BKN040CB OVC070
      TEMPO 2910/2912 4SM -TSRA BR BKN009 OVC025CB
     FM291300 18011G15KT P6SM SCT040 BKN080
     FM300200 18008KT P6SM SCT040 BKN070
      TEMPO 3002/3006 4SM TSRA SCT020 BKN035CB OVC050=



    US Dept of Commerce
    National Oceanic and Atmospheric Administration
    National Weather Service
    1325 East West Highway
    Silver Spring, MD 20910
    Page Author: NWS Internet Services Team
Disclaimer
Information Quality
Credits
Glossary
Privacy Policy
Freedom of Information Act (FOIA)
About Us
Career Opportunities